Time;durP1;ratioP1;P1;durP2;ratioP2;P2;SDS_P1;SDS_P2;PMS_P1;PMS_P2;Temp;Humidity;BMP_temperature;BMP_pressure;BME280_temperature;BME280_humidity;BME280_pressure;Samples;Min_cycle;Max_cycle;Signal;HPM_P1;HPM_P2
2023/09/19 00:08:24;;;;;;;0.83;0.40;;;;;;;15.98;100.00;97654.50;18548103;32;20361;-56
2023/09/19 00:18:32;;;;;;;1.60;0.35;;;;;;;15.87;100.00;97640.28;18561308;32;20053;-57
2023/09/19 00:28:35;;;;;;;3.12;0.50;;;;;;;15.72;100.00;97651.47;18546868;32;20440;-56
2023/09/19 00:38:37;;;;;;;6.33;0.70;;;;;;;15.57;100.00;97647.94;18560436;32;20396;-57
2023/09/19 00:48:43;;;;;;;2.37;0.35;;;;;;;15.41;100.00;97655.59;18560867;32;20067;-56
2023/09/19 00:58:47;;;;;;;1.85;0.22;;;;;;;15.32;100.00;97653.87;18560214;32;20056;-57
2023/09/19 01:08:50;;;;;;;3.37;0.47;;;;;;;15.24;100.00;97661.66;18545238;32;20082;-57
2023/09/19 01:19:42;;;;;;;3.20;0.52;;;;;;;15.31;100.00;97660.47;18559452;32;20312;-57
2023/09/19 01:29:48;;;;;;;3.62;0.70;;;;;;;15.42;100.00;97659.16;18559274;32;20052;-57
2023/09/19 01:39:57;;;;;;;4.12;0.47;;;;;;;15.46;100.00;97659.34;18558621;32;20049;-57
2023/09/19 01:50:13;;;;;;;2.10;0.55;;;;;;;15.49;100.00;97667.72;18549487;32;20095;-57
2023/09/19 02:00:18;;;;;;;2.80;0.60;;;;;;;15.47;100.00;97659.06;18569700;32;20075;-57
2023/09/19 02:10:20;;;;;;;1.77;0.40;;;;;;;15.49;100.00;97669.66;18569128;32;20378;-57
2023/09/19 02:20:23;;;;;;;4.47;0.40;;;;;;;15.49;100.00;97678.63;18568619;32;20061;-57
2023/09/19 02:30:25;;;;;;;2.45;0.43;;;;;;;15.51;100.00;97687.31;18568490;32;20059;-57
2023/09/19 02:40:28;;;;;;;2.78;0.50;;;;;;;15.53;100.00;97693.25;18567035;32;20061;-57
2023/09/19 02:50:31;;;;;;;2.80;0.40;;;;;;;15.58;100.00;97706.78;18566717;32;20105;-57
2023/09/19 03:00:35;;;;;;;0.55;0.40;;;;;;;15.65;100.00;97705.56;18551239;31;20069;-57
2023/09/19 03:10:38;;;;;;;2.80;0.70;;;;;;;15.76;100.00;97705.09;18565607;32;20428;-57
2023/09/19 03:20:40;;;;;;;1.92;0.68;;;;;;;15.83;100.00;97715.63;18564848;32;20045;-57
2023/09/19 03:30:43;;;;;;;0.98;0.57;;;;;;;15.86;100.00;97719.66;18549363;32;20448;-57
2023/09/19 03:40:45;;;;;;;4.05;0.50;;;;;;;15.89;100.00;97719.03;18563583;32;20501;-57
2023/09/19 03:50:48;;;;;;;4.60;0.70;;;;;;;15.92;100.00;97719.25;18562866;32;20083;-57
2023/09/19 04:00:54;;;;;;;2.33;0.40;;;;;;;15.95;100.00;97725.19;18562400;32;20071;-57
2023/09/19 04:10:57;;;;;;;1.62;0.80;;;;;;;15.93;100.00;97720.06;18547493;32;20053;-57
2023/09/19 04:21:03;;;;;;;2.95;0.70;;;;;;;15.91;100.00;97723.09;18561321;32;20116;-57
2023/09/19 04:31:07;;;;;;;1.95;0.70;;;;;;;15.95;100.00;97734.22;18561616;32;20495;-57
2023/09/19 04:41:09;;;;;;;0.85;0.62;;;;;;;15.90;100.00;97734.31;18546208;31;20052;-56
2023/09/19 04:51:13;;;;;;;1.77;0.52;;;;;;;15.82;100.00;97748.62;18560266;32;20095;-57
2023/09/19 05:01:17;;;;;;;1.10;0.50;;;;;;;15.79;100.00;97747.28;18560327;32;20100;-57
2023/09/19 05:11:22;;;;;;;1.77;0.80;;;;;;;15.67;100.00;97761.41;18545642;32;20407;-57
2023/09/19 05:21:28;;;;;;;3.45;0.80;;;;;;;15.62;100.00;97786.03;18560338;32;20071;-57
2023/09/19 05:31:31;;;;;;;2.15;0.77;;;;;;;15.67;100.00;97794.12;18571757;32;20129;-57
2023/09/19 05:41:36;;;;;;;4.37;0.60;;;;;;;15.75;100.00;97793.44;18570523;32;20137;-57
2023/09/19 05:51:39;;;;;;;1.00;0.50;;;;;;;15.83;100.00;97804.78;18570405;32;20052;-57
2023/09/19 06:01:44;;;;;;;3.47;0.70;;;;;;;15.99;100.00;97824.38;18555276;32;20089;-57
2023/09/19 06:11:47;;;;;;;1.77;0.60;;;;;;;16.09;100.00;97837.84;18569211;32;20060;-57
2023/09/19 06:21:53;;;;;;;1.37;0.60;;;;;;;16.14;100.00;97829.53;18568663;32;20491;-57
2023/09/19 06:31:56;;;;;;;2.67;0.65;;;;;;;16.32;100.00;97840.66;18567763;32;20066;-57
2023/09/19 06:42:01;;;;;;;1.27;0.52;;;;;;;16.48;100.00;97841.97;18567003;32;20049;-57
2023/09/19 06:52:06;;;;;;;1.77;0.73;;;;;;;16.73;100.00;97842.53;18566816;32;20102;-57
2023/09/19 07:02:09;;;;;;;1.40;0.70;;;;;;;16.94;100.00;97853.88;18539250;32;20402;-57
2023/09/19 07:12:13;;;;;;;1.27;0.77;;;;;;;17.19;100.00;97863.41;18565576;32;20373;-57
2023/09/19 07:22:16;;;;;;;1.55;0.77;;;;;;;17.23;100.00;97874.53;18564947;32;20429;-57
2023/09/19 07:32:20;;;;;;;1.15;0.60;;;;;;;17.36;100.00;97865.50;18549731;32;20395;-57
2023/09/19 07:42:23;;;;;;;1.00;0.80;;;;;;;17.37;100.00;97879.94;18563320;32;20113;-57
2023/09/19 07:52:27;;;;;;;1.70;0.70;;;;;;;17.57;100.00;97876.72;18562095;32;20554;-57
2023/09/19 08:02:37;;;;;;;1.48;0.85;;;;;;;17.87;100.00;97888.03;18548829;32;20063;-56
2023/09/19 08:12:46;;;;;;;1.85;0.50;;;;;;;18.10;100.00;97901.69;18548595;32;20040;-57
2023/09/19 08:23:02;;;;;;;1.25;0.70;;;;;;;18.31;100.00;97909.34;18561236;31;20060;-57
2023/09/19 08:33:07;;;;;;;2.25;0.73;;;;;;;18.81;100.00;97911.78;18560840;32;20052;-57
2023/09/19 08:43:10;;;;;;;2.40;0.70;;;;;;;19.15;100.00;97913.03;18560318;32;20061;-57
2023/09/19 08:53:27;;;;;;;2.92;0.98;;;;;;;19.09;100.00;97906.06;18560386;32;20099;-57
2023/09/19 09:03:34;;;;;;;1.10;0.70;;;;;;;19.16;100.00;97919.31;18572327;32;20048;-57
2023/09/19 09:13:38;;;;;;;0.80;0.60;;;;;;;19.18;100.00;97909.62;18572612;32;20060;-56
2023/09/19 09:23:42;;;;;;;1.60;0.88;;;;;;;19.04;100.00;97904.31;18572047;32;20089;-56
2023/09/19 09:33:55;;;;;;;1.70;0.50;;;;;;;19.07;100.00;97900.91;18571317;32;20068;-57
2023/09/19 09:44:19;;;;;;;1.27;0.57;;;;;;;19.33;100.00;97902.09;18570480;32;20053;-56
2023/09/19 09:54:23;;;;;;;2.53;0.88;;;;;;;19.43;100.00;97904.50;18570519;32;20068;-57
2023/09/19 10:04:36;;;;;;;1.52;0.60;;;;;;;19.77;100.00;97892.69;18569786;32;20083;-56
2023/09/19 10:14:44;;;;;;;1.02;0.80;;;;;;;19.82;100.00;97889.00;18569400;31;20061;-56
2023/09/19 10:24:52;;;;;;;1.30;0.60;;;;;;;20.06;100.00;97883.00;18569141;32;20476;-56
2023/09/19 10:35:07;;;;;;;1.37;0.95;;;;;;;20.44;100.00;97870.41;18567879;32;20072;-56
2023/09/19 10:45:15;;;;;;;1.00;0.70;;;;;;;20.68;100.00;97868.97;18567472;32;20074;-56
2023/09/19 10:55:22;;;;;;;1.45;0.70;;;;;;;20.12;100.00;97875.37;18566801;32;20048;-57
2023/09/19 11:05:25;;;;;;;1.20;0.65;;;;;;;20.26;100.00;97866.94;18566184;32;20048;-56
2023/09/19 11:16:05;;;;;;;1.27;0.90;;;;;;;20.82;100.00;97866.84;18565313;32;20075;-56
2023/09/19 11:26:47;;;;;;;1.55;1.00;;;;;;;21.13;100.00;97866.47;18564346;32;20052;-57
2023/09/19 11:36:51;;;;;;;1.48;0.70;;;;;;;21.27;100.00;97860.69;18564546;32;20053;-57
2023/09/19 11:46:58;;;;;;;1.17;0.80;;;;;;;21.26;100.00;97848.06;18497023;32;20088;-56
2023/09/19 11:57:03;;;;;;;1.12;0.60;;;;;;;21.72;100.00;97844.63;18498132;32;20057;-57
2023/09/19 12:07:15;;;;;;;2.08;0.85;;;;;;;22.34;100.00;97840.06;18497198;32;20086;-57
2023/09/19 12:17:22;;;;;;;1.87;0.80;;;;;;;22.17;100.00;97847.38;18495474;32;20116;-57
2023/09/19 12:27:27;;;;;;;1.62;0.90;;;;;;;22.63;100.00;97825.22;18496101;32;20086;-57
2023/09/19 12:37:30;;;;;;;1.10;0.80;;;;;;;22.98;100.00;97821.16;18495423;32;20057;-57
2023/09/19 12:47:34;;;;;;;2.80;0.85;;;;;;;22.82;100.00;97821.09;18555848;32;20045;-57
2023/09/19 12:57:39;;;;;;;0.80;0.57;;;;;;;22.61;100.00;97813.75;18559777;32;20098;-57
2023/09/19 13:07:46;;;;;;;1.15;0.77;;;;;;;23.00;100.00;97805.87;18559777;32;20040;-57
2023/09/19 13:17:50;;;;;;;1.02;0.50;;;;;;;22.89;100.00;97810.25;18559654;32;20048;-57
2023/09/19 13:27:58;;;;;;;2.35;0.70;;;;;;;22.76;100.00;97794.91;18545101;32;20053;-56
2023/09/19 13:38:01;;;;;;;2.12;0.52;;;;;;;22.68;100.00;97777.34;18559164;32;20121;-56
2023/09/19 13:48:04;;;;;;;1.45;0.40;;;;;;;22.49;100.00;97764.19;18552387;32;20112;-57
2023/09/19 13:58:07;;;;;;;1.52;0.60;;;;;;;22.37;100.00;97755.94;18556043;32;20137;-56
2023/09/19 14:08:12;;;;;;;0.52;0.37;;;;;;;22.94;100.00;97754.88;18569478;32;20113;-56
2023/09/19 14:18:16;;;;;;;1.65;0.68;;;;;;;23.09;100.00;97741.47;18569509;32;20057;-56
2023/09/19 14:28:19;;;;;;;1.35;0.55;;;;;;;22.89;100.00;97719.28;18554364;32;20465;-56
2023/09/19 14:38:22;;;;;;;0.90;0.50;;;;;;;22.72;100.00;97712.13;18567291;31;20147;-56
2023/09/19 14:48:25;;;;;;;;;;;;;;;22.70;100.00;97708.09;18567329;32;20057;-57
2023/09/19 14:58:33;;;;;;;1.30;0.60;;;;;;;22.72;100.00;97695.56;18566559;32;20003;-56
2023/09/19 15:08:40;;;;;;;1.52;0.60;;;;;;;22.82;100.00;97700.59;18565780;32;20135;-56
2023/09/19 15:18:47;;;;;;;1.10;0.60;;;;;;;22.40;100.00;97698.16;18565295;32;20104;-56
2023/09/19 15:28:54;;;;;;;1.00;0.57;;;;;;;22.06;100.00;97691.19;18565024;32;20040;-56
2023/09/19 15:39:05;;;;;;;1.33;0.50;;;;;;;21.86;100.00;97698.41;18564153;31;20387;-56
2023/09/19 15:49:09;;;;;;;0.75;0.45;;;;;;;21.58;100.00;97682.59;18563528;32;20078;-56
2023/09/19 15:59:14;;;;;;;1.33;0.62;;;;;;;21.22;100.00;97693.16;18562678;32;20064;-56
2023/09/19 16:09:18;;;;;;;1.33;0.70;;;;;;;20.84;100.00;97688.66;18548108;32;20044;-56
2023/09/19 16:19:21;;;;;;;1.62;0.52;;;;;;;20.63;100.00;97689.47;18561722;32;20397;-56
2023/09/19 16:29:24;;;;;;;;;;;;;;;20.40;100.00;97685.44;18561638;32;20049;-57
2023/09/19 16:39:27;;;;;;;1.30;0.67;;;;;;;20.14;100.00;97687.25;18560357;32;20372;-56
2023/09/19 16:49:31;;;;;;;1.75;0.90;;;;;;;19.85;100.00;97684.50;18561236;32;20044;-56
2023/09/19 16:59:35;;;;;;;2.10;0.90;;;;;;;19.59;100.00;97675.22;18560512;32;20060;-56
2023/09/19 17:09:38;;;;;;;2.37;0.60;;;;;;;19.29;100.00;97677.09;18559705;32;20371;-56
2023/09/19 17:19:41;;;;;;;2.13;0.80;;;;;;;19.03;100.00;97691.69;18538313;32;20052;-56
2023/09/19 17:29:44;;;;;;;3.07;0.70;;;;;;;18.79;100.00;97695.72;18571989;31;20061;-56
2023/09/19 17:39:46;;;;;;;2.07;0.80;;;;;;;18.50;100.00;97698.28;18570848;32;20104;-56
2023/09/19 17:49:50;;;;;;;1.57;0.70;;;;;;;18.13;100.00;97706.78;18570832;32;20075;-56
2023/09/19 17:59:52;;;;;;;1.73;0.88;;;;;;;17.89;100.00;97710.72;18556058;32;20112;-56
2023/09/19 18:09:58;;;;;;;2.87;0.80;;;;;;;17.61;100.00;97712.88;18569693;32;20126;-56
2023/09/19 18:20:04;;;;;;;1.83;0.57;;;;;;;17.31;100.00;97730.88;18569182;32;20052;-56
2023/09/19 18:30:08;;;;;;;4.20;0.95;;;;;;;17.08;100.00;97730.91;18540954;32;20083;-57
2023/09/19 18:40:11;;;;;;;4.57;1.08;;;;;;;16.87;100.00;97746.94;18567154;32;20113;-57
2023/09/19 18:50:15;;;;;;;5.27;1.13;;;;;;;16.66;100.00;97749.34;18553063;32;20064;-56
2023/09/19 19:00:25;;;;;;;7.37;1.10;;;;;;;16.46;100.00;97756.88;18566562;32;20052;-56
2023/09/19 19:10:39;;;;;;;2.35;1.08;;;;;;;16.20;100.00;97760.13;18566188;32;20048;-56
2023/09/19 19:20:43;;;;;;;6.23;0.80;;;;;;;16.02;100.00;97767.31;18551120;31;20082;-56
2023/09/19 19:30:47;;;;;;;6.78;1.35;;;;;;;15.86;100.00;97775.00;18564766;32;20464;-55
2023/09/19 19:40:59;;;;;;;2.55;0.70;;;;;;;15.71;100.00;97786.16;18562973;32;20053;-55
2023/09/19 19:51:10;;;;;;;1.50;0.65;;;;;;;15.52;100.00;97792.47;18549379;32;20061;-56
2023/09/19 20:01:13;;;;;;;3.97;0.90;;;;;;;15.43;100.00;97794.28;18548520;32;20068;-55
2023/09/19 20:11:17;;;;;;;4.37;0.93;;;;;;;15.34;100.00;97809.69;18562380;32;20542;-56
2023/09/19 20:21:21;;;;;;;2.80;1.00;;;;;;;15.20;100.00;97813.16;18561567;32;20097;-56
2023/09/19 20:31:28;;;;;;;5.78;1.02;;;;;;;15.03;100.00;97821.87;18561228;32;20349;-56
2023/09/19 20:41:31;;;;;;;1.80;0.70;;;;;;;14.94;100.00;97811.94;18546451;32;20048;-55
2023/09/19 20:51:35;;;;;;;1.50;0.80;;;;;;;14.89;100.00;97812.81;18563296;32;20057;-57
2023/09/19 21:01:37;;;;;;;2.28;0.90;;;;;;;14.88;100.00;97803.84;18581964;32;20068;-56
2023/09/19 21:11:40;;;;;;;3.33;1.20;;;;;;;14.81;100.00;97814.28;18581316;31;20480;-56
2023/09/19 21:21:43;;;;;;;2.57;1.17;;;;;;;14.70;100.00;97812.81;18566993;32;20053;-56
2023/09/19 21:31:46;;;;;;;2.47;1.00;;;;;;;14.67;100.00;97816.13;18553983;32;20093;-57
2023/09/19 21:41:49;;;;;;;7.10;1.15;;;;;;;14.60;100.00;97807.50;18580885;31;20115;-56
2023/09/19 21:51:51;;;;;;;2.53;1.37;;;;;;;14.48;100.00;97795.09;18581234;32;20092;-56
2023/09/19 22:01:54;;;;;;;2.90;0.88;;;;;;;14.43;100.00;97795.19;18565706;32;20492;-56
2023/09/19 22:11:58;;;;;;;3.55;1.10;;;;;;;14.32;100.00;97782.81;18568936;32;20095;-56
2023/09/19 22:22:02;;;;;;;1.87;0.90;;;;;;;14.20;100.00;97780.53;18542391;32;20052;-56
2023/09/19 22:32:07;;;;;;;3.92;1.10;;;;;;;14.12;100.00;97768.37;18568350;32;20107;-56
2023/09/19 22:42:11;;;;;;;4.37;1.10;;;;;;;14.05;100.00;97755.13;18567430;32;20059;-56
2023/09/19 22:52:14;;;;;;;2.67;0.85;;;;;;;14.00;100.00;97751.66;18567340;32;20092;-56
2023/09/19 23:02:18;;;;;;;3.12;0.90;;;;;;;13.92;100.00;97746.88;18566508;32;20091;-56
2023/09/19 23:12:20;;;;;;;2.60;0.60;;;;;;;13.84;100.00;97751.84;18565863;32;20052;-55
2023/09/19 23:22:23;;;;;;;4.30;0.90;;;;;;;13.81;100.00;97752.41;18565245;32;20135;-56
2023/09/19 23:32:26;;;;;;;6.93;1.42;;;;;;;13.75;100.00;97745.44;18565051;32;20057;-55
2023/09/19 23:42:28;;;;;;;5.72;1.17;;;;;;;13.68;100.00;97751.19;18563730;31;20105;-56
2023/09/19 23:52:31;;;;;;;2.28;1.35;;;;;;;13.63;100.00;97745.81;18536071;31;20053;-56
